Time;durP1;ratioP1;P1;durP2;ratioP2;P2;SDS_P1;SDS_P2;PMS_P1;PMS_P2;Temp;Humidity;BMP_temperature;BMP_pressure;BME280_temperature;BME280_humidity;BME280_pressure;Samples;Min_cycle;Max_cycle;Signal;HPM_P1;HPM_P2
2020/12/13 00:01:32;;;;;;;;;;;;;;;26.28;31.15;99694.19;5058982;28;922;-28
2020/12/13 00:03:57;;;;;;;;;;;;;;;26.21;31.39;99700.59;5058659;28;1011;-37
2020/12/13 00:06:22;;;;;;;;;;;;;;;26.46;31.08;99692.00;5058723;28;851;-36
2020/12/13 00:08:48;;;;;;;;;;;;;;;26.70;30.63;99698.66;5058861;28;810;-33
2020/12/13 00:11:15;;;;;;;;;;;;;;;26.92;30.46;99703.88;5058717;28;1969;-27
2020/12/13 00:13:41;;;;;;;;;;;;;;;26.35;31.11;99704.19;5058451;28;756;-36
2020/12/13 00:16:06;;;;;;;;;;;;;;;26.08;31.49;99704.06;5077397;28;1200;-34
2020/12/13 00:18:31;;;;;;;;;;;;;;;26.34;31.37;99713.31;5077991;28;1287;-27
2020/12/13 00:20:57;;;;;;;;;;;;;;;26.59;30.71;99712.75;5058390;28;1031;-37
2020/12/13 00:23:22;;;;;;;;;;;;;;;26.88;30.00;99714.25;5058911;28;930;-37
2020/12/13 00:25:48;;;;;;;;;;;;;;;26.18;31.25;99720.69;5058364;28;776;-28
2020/12/13 00:28:13;;;;;;;;;;;;;;;25.96;31.71;99709.22;5058467;28;760;-31
2020/12/13 00:30:38;;;;;;;;;;;;;;;26.21;31.36;99720.28;5058440;28;1914;-29
2020/12/13 00:33:03;;;;;;;;;;;;;;;26.72;30.35;99720.03;5057582;28;835;-36
2020/12/13 00:35:29;;;;;;;;;;;;;;;26.68;30.50;99710.69;5057668;28;992;-27
2020/12/13 00:37:54;;;;;;;;;;;;;;;26.21;31.21;99714.91;5058631;28;779;-36
2020/12/13 00:40:19;;;;;;;;;;;;;;;26.17;31.41;99710.97;5058043;28;843;-31
2020/12/13 00:42:45;;;;;;;;;;;;;;;26.56;30.78;99705.88;5058261;28;814;-34
2020/12/13 00:45:10;;;;;;;;;;;;;;;26.81;30.23;99707.19;5058192;28;819;-36
2020/12/13 00:47:35;;;;;;;;;;;;;;;26.96;29.98;99712.38;5058124;28;874;-37
2020/12/13 00:50:00;;;;;;;;;;;;;;;26.31;30.94;99711.81;5057739;28;1971;-36
2020/12/13 00:52:26;;;;;;;;;;;;;;;25.96;31.71;99714.59;5057877;28;744;-32
2020/12/13 00:54:51;;;;;;;;;;;;;;;26.41;31.08;99715.00;5057974;28;827;-36
2020/12/13 00:57:16;;;;;;;;;;;;;;;26.82;30.25;99711.53;5058026;28;755;-36
2020/12/13 00:59:42;;;;;;;;;;;;;;;26.66;30.45;99710.88;5057813;28;763;-27
2020/12/13 01:02:07;;;;;;;;;;;;;;;26.31;31.06;99708.31;5058044;28;783;-36
2020/12/13 01:04:33;;;;;;;;;;;;;;;26.08;31.58;99699.50;5057697;28;932;-27
2020/12/13 01:07:02;;;;;;;;;;;;;;;26.48;31.06;99711.47;5057555;28;803;-30
2020/12/13 01:09:28;;;;;;;;;;;;;;;26.83;30.30;99703.22;5057641;28;1894;-35
2020/12/13 01:11:53;;;;;;;;;;;;;;;27.02;29.79;99704.31;5057564;28;724;-36
2020/12/13 01:14:18;;;;;;;;;;;;;;;26.27;30.95;99700.63;5060906;28;1097;-31
2020/12/13 01:16:43;;;;;;;;;;;;;;;25.96;31.58;99701.94;5077646;28;760;-30
2020/12/13 01:19:09;;;;;;;;;;;;;;;26.40;31.08;99702.56;5071188;28;1279;-28
2020/12/13 01:21:34;;;;;;;;;;;;;;;26.72;30.51;99710.09;5057299;28;803;-37
2020/12/13 01:23:59;;;;;;;;;;;;;;;26.57;30.56;99712.13;5057358;28;767;-31
2020/12/13 01:26:25;;;;;;;;;;;;;;;26.04;31.40;99707.16;5057392;28;859;-36
2020/12/13 01:28:50;;;;;;;;;;;;;;;25.93;31.76;99721.22;5057159;28;849;-28
2020/12/13 01:31:16;;;;;;;;;;;;;;;26.51;30.89;99716.44;5057569;28;1980;-36
2020/12/13 01:33:42;;;;;;;;;;;;;;;26.76;30.25;99724.81;5056786;28;956;-31
2020/12/13 01:36:11;;;;;;;;;;;;;;;26.56;30.50;99719.38;5057182;28;787;-36
2020/12/13 01:38:36;;;;;;;;;;;;;;;26.12;31.27;99727.75;5057452;28;810;-36
2020/12/13 01:41:01;;;;;;;;;;;;;;;25.96;31.68;99726.19;5057015;28;828;-36
2020/12/13 01:43:27;;;;;;;;;;;;;;;26.47;30.88;99720.59;5056466;28;720;-36
2020/12/13 01:45:52;;;;;;;;;;;;;;;26.79;30.17;99723.56;5056653;28;808;-27
2020/12/13 01:48:18;;;;;;;;;;;;;;;26.47;30.47;99717.91;5056982;28;768;-33
2020/12/13 01:51:11;;;;;;;;;;;;;;;26.01;31.59;99707.56;5056238;28;1882;-35
2020/12/13 01:53:29;;;;;;;;;;;;;;;26.06;31.74;99719.63;5056193;28;1415;-26
2020/12/13 01:55:57;;;;;;;;;;;;;;;26.62;30.71;99717.75;5038660;28;689;-27
2020/12/13 01:58:28;;;;;;;;;;;;;;;26.83;30.05;99714.03;5056841;28;788;-36
2020/12/13 02:00:53;;;;;;;;;;;;;;;26.48;30.64;99703.38;5057097;28;771;-36
2020/12/13 02:03:19;;;;;;;;;;;;;;;26.14;31.19;99701.38;5056521;28;733;-28
2020/12/13 02:05:46;;;;;;;;;;;;;;;26.15;31.65;99694.16;5039040;28;956;-36
2020/12/13 02:08:12;;;;;;;;;;;;;;;26.61;30.79;99689.94;5038622;28;823;-27
2020/12/13 02:10:37;;;;;;;;;;;;;;;26.85;30.16;99700.31;5038680;28;1967;-36
2020/12/13 02:13:02;;;;;;;;;;;;;;;26.33;30.90;99706.25;5056309;28;855;-36
2020/12/13 02:15:27;;;;;;;;;;;;;;;26.04;31.35;99717.13;5069504;28;1108;-36
2020/12/13 02:17:54;;;;;;;;;;;;;;;26.29;31.43;99711.22;5076219;28;1055;-36
2020/12/13 02:20:19;;;;;;;;;;;;;;;26.67;30.48;99715.25;5061303;28;1022;-35
2020/12/13 02:22:48;;;;;;;;;;;;;;;26.93;29.93;99716.31;5056116;28;898;-30
2020/12/13 02:25:15;;;;;;;;;;;;;;;26.28;31.06;99723.00;5056082;28;792;-36
2020/12/13 02:27:40;;;;;;;;;;;;;;;25.93;31.57;99726.59;5056484;28;763;-28
2020/12/13 02:30:05;;;;;;;;;;;;;;;26.43;31.13;99724.72;5056203;28;1967;-28
2020/12/13 02:32:31;;;;;;;;;;;;;;;26.82;30.35;99735.81;5056411;28;765;-36
2020/12/13 02:34:56;;;;;;;;;;;;;;;26.47;30.66;99737.63;5056374;28;936;-36
2020/12/13 02:37:21;;;;;;;;;;;;;;;26.16;31.08;99733.53;5056333;28;755;-31
2020/12/13 02:39:47;;;;;;;;;;;;;;;26.06;31.70;99735.78;5056297;28;879;-36
2020/12/13 02:42:12;;;;;;;;;;;;;;;26.46;30.80;99735.13;5056336;28;775;-35
2020/12/13 02:44:37;;;;;;;;;;;;;;;26.83;30.14;99743.69;5056066;28;732;-36
2020/12/13 02:47:02;;;;;;;;;;;;;;;26.97;30.03;99741.88;5055975;28;790;-36
2020/12/13 02:49:28;;;;;;;;;;;;;;;26.30;30.94;99742.50;5055742;28;1971;-34
2020/12/13 02:51:53;;;;;;;;;;;;;;;26.03;31.63;99750.47;5056024;28;835;-35
2020/12/13 02:54:18;;;;;;;;;;;;;;;26.46;30.87;99740.53;5056396;28;779;-31
2020/12/13 02:56:44;;;;;;;;;;;;;;;26.73;30.13;99745.97;5059687;28;850;-36
2020/12/13 02:59:09;;;;;;;;;;;;;;;26.78;30.07;99741.63;5060131;28;809;-29
2020/12/13 03:01:34;;;;;;;;;;;;;;;26.28;30.96;99741.88;5060073;28;818;-36
2020/12/13 03:04:00;;;;;;;;;;;;;;;25.94;31.35;99730.13;5059835;28;983;-36
2020/12/13 03:06:25;;;;;;;;;;;;;;;26.42;30.71;99740.09;5059989;28;847;-37
2020/12/13 03:08:50;;;;;;;;;;;;;;;26.64;30.33;99743.47;5059919;28;791;-34
2020/12/13 03:11:20;;;;;;;;;;;;;;;26.93;29.91;99735.19;5059803;28;1905;-37
2020/12/13 03:13:49;;;;;;;;;;;;;;;26.23;30.92;99728.16;5059834;28;752;-36
2020/12/13 03:16:15;;;;;;;;;;;;;;;25.84;31.49;99734.00;5079717;28;1171;-37
2020/12/13 03:18:40;;;;;;;;;;;;;;;26.39;30.62;99743.22;5077530;28;1314;-29
2020/12/13 03:21:05;;;;;;;;;;;;;;;26.78;30.14;99748.88;5059407;28;869;-37
2020/12/13 03:23:30;;;;;;;;;;;;;;;26.95;29.71;99743.09;5059757;28;763;-36
2020/12/13 03:25:56;;;;;;;;;;;;;;;26.26;30.78;99755.56;5059497;28;843;-37
2020/12/13 03:28:21;;;;;;;;;;;;;;;26.04;31.24;99762.94;5059718;28;819;-37
2020/12/13 03:30:46;;;;;;;;;;;;;;;26.37;30.70;99766.84;5059825;28;1906;-36
2020/12/13 03:33:12;;;;;;;;;;;;;;;26.71;30.15;99759.66;5059339;28;818;-28
2020/12/13 03:35:37;;;;;;;;;;;;;;;26.97;29.59;99771.53;5058877;28;975;-37
2020/12/13 03:38:02;;;;;;;;;;;;;;;26.30;30.73;99774.88;5059403;28;831;-37
2020/12/13 03:40:27;;;;;;;;;;;;;;;25.87;31.30;99768.66;5059334;28;891;-38
2020/12/13 03:42:53;;;;;;;;;;;;;;;26.41;30.67;99770.78;5059480;28;819;-37
2020/12/13 03:45:18;;;;;;;;;;;;;;;26.57;30.50;99779.56;5059035;28;972;-32
2020/12/13 03:47:43;;;;;;;;;;;;;;;26.85;30.07;99798.31;5059255;28;767;-37
2020/12/13 03:50:08;;;;;;;;;;;;;;;26.39;30.55;99792.56;5058811;28;1965;-28
2020/12/13 03:52:34;;;;;;;;;;;;;;;26.10;31.16;99799.03;5058951;28;819;-36
2020/12/13 03:54:59;;;;;;;;;;;;;;;26.33;31.05;99798.75;5059298;28;776;-36
2020/12/13 03:57:24;;;;;;;;;;;;;;;26.72;30.44;99799.09;5070460;28;831;-35
2020/12/13 03:59:49;;;;;;;;;;;;;;;26.46;30.16;99799.84;5078313;28;823;-35
2020/12/13 04:02:15;;;;;;;;;;;;;;;26.11;30.92;99803.41;5078916;28;767;-37
2020/12/13 04:04:40;;;;;;;;;;;;;;;25.94;31.38;99805.59;5068631;28;987;-36
2020/12/13 04:07:05;;;;;;;;;;;;;;;26.39;30.98;99813.31;5057702;28;814;-36
2020/12/13 04:09:30;;;;;;;;;;;;;;;26.67;30.22;99806.97;5058754;28;1898;-37
2020/12/13 04:11:56;;;;;;;;;;;;;;;26.81;29.69;99813.22;5058947;28;803;-34
2020/12/13 04:14:21;;;;;;;;;;;;;;;26.26;30.68;99819.41;5062817;28;1120;-36
2020/12/13 04:16:46;;;;;;;;;;;;;;;25.83;31.30;99809.63;5079108;28;810;-35
2020/12/13 04:19:12;;;;;;;;;;;;;;;26.23;30.87;99801.78;5072037;28;1164;-37
2020/12/13 04:21:38;;;;;;;;;;;;;;;26.68;30.01;99802.38;5058559;28;764;-32
2020/12/13 04:24:03;;;;;;;;;;;;;;;26.97;29.46;99806.63;5058417;28;838;-29
2020/12/13 04:26:29;;;;;;;;;;;;;;;26.31;30.57;99808.06;5063347;28;832;-30
2020/12/13 04:28:54;;;;;;;;;;;;;;;26.01;31.03;99809.97;5078313;28;813;-37
2020/12/13 04:31:19;;;;;;;;;;;;;;;26.12;31.11;99807.75;5078398;28;1917;-29
2020/12/13 04:33:44;;;;;;;;;;;;;;;26.58;29.92;99802.78;5075700;28;1025;-26
2020/12/13 04:36:10;;;;;;;;;;;;;;;26.91;29.40;99791.25;5058345;28;787;-35
2020/12/13 04:38:35;;;;;;;;;;;;;;;26.25;30.45;99786.25;5058077;28;851;-36
2020/12/13 04:41:01;;;;;;;;;;;;;;;25.96;31.01;99787.38;5057928;28;819;-36
2020/12/13 04:43:26;;;;;;;;;;;;;;;26.13;30.79;99801.31;5058153;28;732;-33
2020/12/13 04:45:51;;;;;;;;;;;;;;;26.51;30.23;99808.16;5058012;28;763;-34
2020/12/13 04:48:17;;;;;;;;;;;;;;;26.48;30.45;99808.56;5057905;28;792;-34
2020/12/13 04:50:42;;;;;;;;;;;;;;;24.62;26.82;99799.41;5039593;28;1913;-31
2020/12/13 04:53:08;;;;;;;;;;;;;;;23.59;29.74;99799.03;5039992;28;944;-35
2020/12/13 04:55:43;;;;;;;;;;;;;;;23.23;29.62;99800.50;5077193;28;1011;-30
2020/12/13 04:58:09;;;;;;;;;;;;;;;21.94;32.41;99795.25;5077645;28;922;-38
2020/12/13 05:00:35;;;;;;;;;;;;;;;22.32;31.10;99809.88;5077369;28;943;-37
2020/12/13 05:03:00;;;;;;;;;;;;;;;22.97;30.69;99807.06;5077738;28;744;-38
2020/12/13 05:05:25;;;;;;;;;;;;;;;23.95;31.60;99802.88;5061334;28;943;-36
2020/12/13 05:07:51;;;;;;;;;;;;;;;24.29;32.02;99806.06;5057596;28;823;-36
2020/12/13 05:10:16;;;;;;;;;;;;;;;24.90;31.24;99806.75;5057380;28;1910;-36
2020/12/13 05:12:41;;;;;;;;;;;;;;;25.12;31.06;99791.50;5057801;28;764;-34
2020/12/13 05:15:06;;;;;;;;;;;;;;;25.56;30.30;99792.25;5067496;28;1148;-32
2020/12/13 05:17:33;;;;;;;;;;;;;;;26.21;29.29;99793.06;5059877;28;755;-37
2020/12/13 05:19:58;;;;;;;;;;;;;;;25.86;30.08;99790.41;5063752;28;1317;-35
2020/12/13 05:22:23;;;;;;;;;;;;;;;25.87;30.18;99789.38;5057233;28;926;-38
2020/12/13 05:24:49;;;;;;;;;;;;;;;25.44;30.75;99797.31;5057449;28;775;-36
2020/12/13 05:27:14;;;;;;;;;;;;;;;26.07;29.96;99800.28;5057218;28;795;-37
2020/12/13 05:29:44;;;;;;;;;;;;;;;26.32;29.52;99807.00;5038969;28;1918;-36
2020/12/13 05:32:09;;;;;;;;;;;;;;;26.16;29.80;99804.44;5056841;28;856;-35
2020/12/13 05:34:37;;;;;;;;;;;;;;;25.64;30.76;99804.75;5056245;28;968;-35
2020/12/13 05:37:04;;;;;;;;;;;;;;;26.35;29.84;99814.72;5057162;28;784;-30
2020/12/13 05:39:32;;;;;;;;;;;;;;;26.62;29.18;99812.16;5057052;28;879;-33
2020/12/13 05:41:57;;;;;;;;;;;;;;;26.57;29.06;99811.91;5056814;28;815;-37
2020/12/13 05:52:14;;;;;;;;;;;;;;;26.76;29.02;99826.47;5056581;28;609;-33
2020/12/13 05:54:39;;;;;;;;;;;;;;;26.46;29.38;99824.94;5056452;28;902;-31
2020/12/13 05:57:05;;;;;;;;;;;;;;;26.31;29.71;99826.94;5038700;28;812;-33
2020/12/13 05:59:30;;;;;;;;;;;;;;;25.91;30.37;99826.50;5057106;28;780;-31
2020/12/13 06:01:56;;;;;;;;;;;;;;;26.57;29.26;99823.53;5056305;28;832;-32
2020/12/13 06:04:31;;;;;;;;;;;;;;;26.84;28.77;99818.19;5056022;28;968;-35
2020/12/13 06:07:02;;;;;;;;;;;;;;;26.60;29.34;99825.84;5056382;28;815;-33
2020/12/13 06:09:30;;;;;;;;;;;;;;;26.42;29.76;99823.69;5056731;28;1956;-34
2020/12/13 06:11:56;;;;;;;;;;;;;;;26.41;30.07;99830.09;5056377;28;768;-33
2020/12/13 06:14:21;;;;;;;;;;;;;;;26.69;29.71;99837.28;5042674;28;1058;-34
2020/12/13 06:16:47;;;;;;;;;;;;;;;27.12;29.25;99838.03;5076745;28;807;-35
2020/12/13 06:19:14;;;;;;;;;;;;;;;27.07;28.85;99844.06;5070081;28;1151;-34
2020/12/13 06:21:39;;;;;;;;;;;;;;;26.92;29.06;99841.50;5056708;28;882;-34
2020/12/13 06:24:06;;;;;;;;;;;;;;;26.56;30.36;99848.84;5056161;28;723;-34
2020/12/13 06:26:31;;;;;;;;;;;;;;;27.09;29.38;99855.44;5056025;28;948;-34
2020/12/13 06:28:57;;;;;;;;;;;;;;;27.15;28.95;99856.50;5056437;28;775;-34
2020/12/13 06:31:22;;;;;;;;;;;;;;;26.67;29.69;99850.13;5037587;28;1975;-33
2020/12/13 06:33:48;;;;;;;;;;;;;;;26.51;30.10;99849.44;5055959;28;1156;-30
2020/12/13 06:36:13;;;;;;;;;;;;;;;26.50;30.32;99853.19;5056228;28;787;-33
2020/12/13 06:38:38;;;;;;;;;;;;;;;26.86;29.68;99862.00;5056114;28;788;-32
2020/12/13 06:41:10;;;;;;;;;;;;;;;26.78;29.56;99860.34;5056344;28;803;-32
2020/12/13 06:43:39;;;;;;;;;;;;;;;26.90;29.39;99863.28;5056581;28;736;-33
2020/12/13 06:46:15;;;;;;;;;;;;;;;26.63;29.75;99860.50;5055968;28;768;-34
2020/12/13 06:48:41;;;;;;;;;;;;;;;26.45;30.34;99869.13;5055375;28;908;-34
2020/12/13 06:51:07;;;;;;;;;;;;;;;26.81;30.08;99877.97;5055765;28;1934;-36
2020/12/13 06:53:32;;;;;;;;;;;;;;;27.05;29.79;99878.50;5055897;28;824;-36
2020/12/13 06:56:04;;;;;;;;;;;;;;;26.77;29.77;99877.56;5056018;28;878;-35
2020/12/13 06:58:38;;;;;;;;;;;;;;;26.60;29.84;99873.53;5056142;28;756;-35
2020/12/13 07:01:09;;;;;;;;;;;;;;;25.73;32.21;99877.34;5037896;28;871;-34
2020/12/13 07:03:34;;;;;;;;;;;;;;;26.29;31.05;99884.56;5038047;28;963;-32
2020/12/13 07:06:00;;;;;;;;;;;;;;;26.60;30.54;99887.88;5055758;28;871;-34
2020/12/13 07:08:27;;;;;;;;;;;;;;;26.76;30.01;99892.06;5056138;28;827;-34
2020/12/13 07:10:53;;;;;;;;;;;;;;;26.61;30.02;99896.81;5038319;28;1902;-33
2020/12/13 07:13:24;;;;;;;;;;;;;;;26.14;31.12;99891.94;5055688;28;849;-32
2020/12/13 07:15:57;;;;;;;;;;;;;;;26.84;30.11;99899.16;5055068;28;959;-32
2020/12/13 07:18:23;;;;;;;;;;;;;;;27.21;29.64;99893.47;5075709;28;1289;-35
2020/12/13 07:20:49;;;;;;;;;;;;;;;27.17;29.51;99894.94;5038286;28;1002;-35
2020/12/13 07:23:14;;;;;;;;;;;;;;;27.07;29.52;99889.94;5055874;28;843;-35
2020/12/13 07:25:40;;;;;;;;;;;;;;;26.74;30.64;99886.03;5055761;28;780;-34
2020/12/13 07:28:05;;;;;;;;;;;;;;;27.20;29.99;99897.22;5055544;28;886;-34
2020/12/13 07:30:31;;;;;;;;;;;;;;;27.38;29.83;99896.63;5055426;28;1914;-37
2020/12/13 07:32:56;;;;;;;;;;;;;;;27.25;29.94;99894.75;5055864;28;803;-36
2020/12/13 07:35:21;;;;;;;;;;;;;;;26.98;30.21;99901.91;5055212;28;939;-30
2020/12/13 07:37:47;;;;;;;;;;;;;;;26.98;30.48;99902.75;5055682;28;838;-37
2020/12/13 07:40:12;;;;;;;;;;;;;;;27.17;30.67;99913.00;5037854;28;867;-36
2020/12/13 07:42:38;;;;;;;;;;;;;;;27.56;29.93;99907.88;5058623;28;827;-36
2020/12/13 07:45:03;;;;;;;;;;;;;;;27.49;29.90;99905.19;5059664;28;752;-37
2020/12/13 07:47:29;;;;;;;;;;;;;;;27.36;29.70;99904.09;5059260;28;843;-36
2020/12/13 07:50:00;;;;;;;;;;;;;;;27.29;30.00;99916.78;5058587;28;1986;-35
2020/12/13 07:52:25;;;;;;;;;;;;;;;27.20;30.31;99920.69;5059505;28;760;-37
2020/12/13 07:54:51;;;;;;;;;;;;;;;26.77;31.32;99918.03;5058979;28;847;-36
2020/12/13 07:57:18;;;;;;;;;;;;;;;27.09;30.98;99914.03;5059020;28;780;-36
2020/12/13 07:59:43;;;;;;;;;;;;;;;27.48;30.44;99911.59;5059080;28;964;-34
2020/12/13 08:02:09;;;;;;;;;;;;;;;27.59;30.12;99921.78;5070792;28;882;-31
2020/12/13 08:04:39;;;;;;;;;;;;;;;27.37;30.27;99911.19;5051630;28;1287;-33
2020/12/13 08:07:04;;;;;;;;;;;;;;;27.26;30.63;99912.59;5058530;28;1427;-32
2020/12/13 08:09:30;;;;;;;;;;;;;;;27.13;30.78;99897.22;5058586;28;1910;-33
2020/12/13 08:11:55;;;;;;;;;;;;;;;27.17;30.82;99907.59;5058636;28;823;-33
2020/12/13 08:14:24;;;;;;;;;;;;;;;27.21;30.66;99898.88;5062791;28;1057;-33
2020/12/13 08:16:50;;;;;;;;;;;;;;;26.82;29.76;99895.00;5078529;28;835;-33
2020/12/13 08:19:16;;;;;;;;;;;;;;;26.36;31.24;99898.13;5071544;28;1058;-33
2020/12/13 08:21:45;;;;;;;;;;;;;;;26.95;29.84;99907.72;5040874;28;783;-33
2020/12/13 08:24:12;;;;;;;;;;;;;;;27.14;29.33;99914.25;5040616;28;764;-33
2020/12/13 08:26:37;;;;;;;;;;;;;;;27.46;28.84;99916.41;5047102;28;907;-31
2020/12/13 08:29:02;;;;;;;;;;;;;;;27.18;29.30;99909.25;5060428;28;816;-34
2020/12/13 08:31:30;;;;;;;;;;;;;;;26.97;29.72;99900.25;5060278;28;1906;-34
2020/12/13 08:34:02;;;;;;;;;;;;;;;26.56;30.88;99908.16;5074285;28;940;-33
2020/12/13 08:36:27;;;;;;;;;;;;;;;27.19;29.74;99908.25;5058643;28;881;-33
2020/12/13 08:39:03;;;;;;;;;;;;;;;27.47;29.49;99904.53;5057701;28;840;-34
2020/12/13 08:41:28;;;;;;;;;;;;;;;27.34;29.43;99903.47;5058485;28;769;-34
2020/12/13 08:43:54;;;;;;;;;;;;;;;27.15;29.71;99905.09;5057962;28;1243;-32
2020/12/13 08:46:28;;;;;;;;;;;;;;;26.71;30.74;99894.53;5058028;28;743;-33
2020/12/13 08:48:54;;;;;;;;;;;;;;;27.22;30.22;99907.81;5058048;28;932;-33
2020/12/13 08:51:24;;;;;;;;;;;;;;;27.48;29.62;99900.78;5057825;28;1901;-33
2020/12/13 08:53:54;;;;;;;;;;;;;;;27.29;29.53;99894.34;5039834;28;847;-33
2020/12/13 08:56:28;;;;;;;;;;;;;;;27.20;29.84;99899.09;5057627;28;1072;-34
2020/12/13 08:59:00;;;;;;;;;;;;;;;27.03;30.40;99902.16;5039798;28;827;-33
2020/12/13 09:01:31;;;;;;;;;;;;;;;27.07;30.49;99899.91;5057532;28;1116;-32
2020/12/13 09:03:56;;;;;;;;;;;;;;;27.46;29.56;99900.19;5057345;28;968;-32
2020/12/13 09:06:25;;;;;;;;;;;;;;;27.37;29.88;99903.09;5057802;28;763;-33
2020/12/13 09:08:50;;;;;;;;;;;;;;;27.15;30.13;99905.09;5057716;28;809;-33
2020/12/13 09:11:28;;;;;;;;;;;;;;;27.17;30.06;99902.19;5057276;28;1977;-32
2020/12/13 09:13:53;;;;;;;;;;;;;;;27.24;30.20;99903.88;5057497;28;1105;-32
2020/12/13 09:16:28;;;;;;;;;;;;;;;27.55;29.78;99896.25;5077507;28;855;-33
2020/12/13 09:19:02;;;;;;;;;;;;;;;27.35;30.00;99890.81;5073794;28;1546;-32
2020/12/13 09:21:40;;;;;;;;;;;;;;;27.09;30.31;99885.16;5057310;28;846;-33
2020/12/13 09:24:05;;;;;;;;;;;;;;;26.97;30.44;99893.00;5057619;28;756;-33
2020/12/13 09:26:30;;;;;;;;;;;;;;;27.00;30.99;99887.19;5056810;28;855;-30
2020/12/13 09:28:55;;;;;;;;;;;;;;;27.51;30.06;99892.28;5075980;28;813;-33
2020/12/13 09:31:21;;;;;;;;;;;;;;;27.67;29.66;99888.34;5077195;28;1967;-33
2020/12/13 09:33:46;;;;;;;;;;;;;;;27.44;30.00;99883.34;5074233;28;947;-33
2020/12/13 09:36:14;;;;;;;;;;;;;;;27.30;30.02;99883.34;5057174;28;764;-34
2020/12/13 09:38:40;;;;;;;;;;;;;;;27.31;30.10;99887.69;5057066;28;834;-32
2020/12/13 09:41:05;;;;;;;;;;;;;;;27.25;30.20;99885.81;5057045;28;814;-34
2020/12/13 09:43:30;;;;;;;;;;;;;;;27.24;30.43;99882.28;5057128;28;847;-33
2020/12/13 09:45:55;;;;;;;;;;;;;;;27.18;30.38;99883.09;5056948;28;791;-34
2020/12/13 09:48:22;;;;;;;;;;;;;;;27.12;30.49;99876.66;5057072;28;863;-33
2020/12/13 09:50:47;;;;;;;;;;;;;;;27.10;30.93;99883.28;5056736;28;1898;-33
2020/12/13 09:53:12;;;;;;;;;;;;;;;27.09;30.87;99868.13;5056805;28;802;-34
2020/12/13 09:55:37;;;;;;;;;;;;;;;27.09;30.68;99870.84;5056816;28;870;-33
2020/12/13 09:58:03;;;;;;;;;;;;;;;27.12;30.66;99868.56;5056734;28;799;-33
2020/12/13 10:00:28;;;;;;;;;;;;;;;27.14;30.66;99866.47;5056351;28;841;-34
2020/12/13 10:02:54;;;;;;;;;;;;;;;26.92;31.39;99865.78;5056627;28;791;-33
2020/12/13 10:05:27;;;;;;;;;;;;;;;27.26;31.00;99863.16;5055689;28;928;-32
2020/12/13 10:10:37;;;;;;;;;;;;;;;27.66;30.16;99872.34;5056672;28;2233;-33
2020/12/13 10:13:02;;;;;;;;;;;;;;;27.46;30.36;99862.38;5056520;28;787;-33
2020/12/13 10:15:27;;;;;;;;;;;;;;;27.36;30.41;99857.38;5068894;28;1143;-33
2020/12/13 10:17:52;;;;;;;;;;;;;;;27.30;30.75;99860.88;5076503;28;1068;-32
2020/12/13 10:20:18;;;;;;;;;;;;;;;27.28;30.74;99863.78;5061288;28;1013;-32
2020/12/13 10:22:43;;;;;;;;;;;;;;;27.20;30.70;99859.44;5056276;28;814;-32
2020/12/13 10:25:08;;;;;;;;;;;;;;;27.21;30.77;99866.47;5068898;28;1104;-33
2020/12/13 10:27:35;;;;;;;;;;;;;;;27.13;30.43;99862.13;5076485;28;772;-34
2020/12/13 10:30:00;;;;;;;;;;;;;;;26.72;29.69;99866.56;5073137;28;1979;-33
2020/12/13 10:32:25;;;;;;;;;;;;;;;26.47;30.91;99861.69;5076711;28;902;-33
2020/12/13 10:34:50;;;;;;;;;;;;;;;27.05;29.86;99859.63;5064802;28;1118;-34
2020/12/13 10:37:16;;;;;;;;;;;;;;;27.14;29.71;99857.56;5058918;28;1037;-34
2020/12/13 10:39:41;;;;;;;;;;;;;;;27.35;29.37;99861.94;5056299;28;752;-31
2020/12/13 10:42:08;;;;;;;;;;;;;;;26.70;30.21;99855.13;5055850;28;863;-33
2020/12/13 10:44:33;;;;;;;;;;;;;;;26.57;30.56;99846.97;5055721;28;870;-34
2020/12/13 10:46:59;;;;;;;;;;;;;;;26.38;30.99;99831.34;5056148;28;744;-34
2020/12/13 10:49:24;;;;;;;;;;;;;;;27.00;29.78;99837.75;5055804;28;1067;-33
2020/12/13 10:51:49;;;;;;;;;;;;;;;26.98;29.71;99848.78;5055837;28;1902;-33
2020/12/13 10:54:15;;;;;;;;;;;;;;;26.56;30.40;99842.63;5056113;28;874;-33
2020/12/13 10:56:40;;;;;;;;;;;;;;;26.29;30.90;99846.81;5056286;28;827;-34
2020/12/13 10:59:05;;;;;;;;;;;;;;;26.61;30.51;99837.47;5055985;28;782;-34
2020/12/13 11:01:31;;;;;;;;;;;;;;;27.02;29.83;99844.66;5055682;28;1013;-34
2020/12/13 11:03:56;;;;;;;;;;;;;;;26.97;29.72;99843.56;5055283;28;947;-33
2020/12/13 11:06:21;;;;;;;;;;;;;;;26.50;30.60;99841.56;5055904;28;752;-33
2020/12/13 11:08:46;;;;;;;;;;;;;;;26.31;30.77;99854.69;5056280;28;772;-34
2020/12/13 11:11:12;;;;;;;;;;;;;;;26.22;31.28;99845.97;5055663;28;1902;-34
2020/12/13 11:13:37;;;;;;;;;;;;;;;26.75;30.06;99849.97;5055986;28;780;-32
2020/12/13 11:16:02;;;;;;;;;;;;;;;26.71;30.20;99850.56;5074292;28;1097;-33
2020/12/13 11:18:31;;;;;;;;;;;;;;;26.30;30.75;99853.06;5079495;28;1151;-34
2020/12/13 11:20:57;;;;;;;;;;;;;;;25.94;31.61;99868.41;5060003;28;942;-34
2020/12/13 11:23:22;;;;;;;;;;;;;;;26.30;30.96;99861.13;5059794;28;811;-33
2020/12/13 11:25:47;;;;;;;;;;;;;;;26.80;30.20;99864.69;5059636;28;775;-32
2020/12/13 11:28:13;;;;;;;;;;;;;;;26.33;30.70;99854.53;5059519;28;911;-32
2020/12/13 11:30:38;;;;;;;;;;;;;;;26.23;30.74;99862.94;5059812;28;1910;-29
2020/12/13 11:33:03;;;;;;;;;;;;;;;26.00;31.26;99858.69;5059332;28;1092;-35
2020/12/13 11:35:29;;;;;;;;;;;;;;;26.08;31.40;99858.53;5059074;28;967;-30
2020/12/13 11:37:54;;;;;;;;;;;;;;;26.61;30.27;99859.84;5059338;28;783;-34
2020/12/13 11:40:19;;;;;;;;;;;;;;;26.17;30.84;99870.00;5058909;28;824;-27
2020/12/13 11:42:44;;;;;;;;;;;;;;;25.93;31.31;99864.03;5059048;28;827;-34
2020/12/13 11:45:11;;;;;;;;;;;;;;;26.51;30.52;99865.63;5059186;28;775;-34
2020/12/13 11:47:36;;;;;;;;;;;;;;;26.79;29.97;99874.69;5059265;28;795;-35
2020/12/13 11:50:04;;;;;;;;;;;;;;;26.58;30.16;99873.75;5058418;28;1897;-34
2020/12/13 11:52:29;;;;;;;;;;;;;;;26.30;30.59;99874.63;5059375;28;833;-29
2020/12/13 11:54:54;;;;;;;;;;;;;;;26.17;31.09;99878.88;5059054;28;748;-34
2020/12/13 11:57:21;;;;;;;;;;;;;;;26.63;30.54;99881.22;5059058;28;799;-34
2020/12/13 11:59:46;;;;;;;;;;;;;;;27.24;29.22;99886.88;5059249;28;743;-35
2020/12/13 12:02:12;;;;;;;;;;;;;;;27.34;29.12;99895.38;5067567;28;868;-35
2020/12/13 12:04:37;;;;;;;;;;;;;;;27.17;29.81;99894.09;5077080;28;975;-34
2020/12/13 12:07:03;;;;;;;;;;;;;;;27.67;28.97;99899.16;5067450;28;1235;-35
2020/12/13 12:09:28;;;;;;;;;;;;;;;28.12;28.24;99897.69;5058837;28;739;-34
2020/12/13 12:11:53;;;;;;;;;;;;;;;28.06;27.89;99899.34;5058808;28;1898;-35
2020/12/13 12:14:18;;;;;;;;;;;;;;;27.73;28.58;99900.22;5061859;28;1116;-28
2020/12/13 12:16:44;;;;;;;;;;;;;;;27.57;29.52;99898.72;5078787;28;767;-33
2020/12/13 12:19:09;;;;;;;;;;;;;;;27.81;28.50;99900.00;5072588;28;1083;-32
2020/12/13 12:21:36;;;;;;;;;;;;;;;27.26;28.75;99899.09;5058269;28;744;-35
2020/12/13 12:24:02;;;;;;;;;;;;;;;26.95;29.48;99900.47;5058300;28;880;-32
2020/12/13 12:26:30;;;;;;;;;;;;;;;26.72;30.07;99893.53;5058282;28;808;-33
2020/12/13 12:28:56;;;;;;;;;;;;;;;26.84;29.58;99896.47;5057714;28;831;-33
2020/12/13 12:31:21;;;;;;;;;;;;;;;26.65;29.72;99895.34;5058456;28;1969;-32
2020/12/13 12:33:46;;;;;;;;;;;;;;;26.75;29.97;99901.22;5058166;28;1014;-34
2020/12/13 12:36:18;;;;;;;;;;;;;;;26.93;29.49;99898.97;5058398;28;740;-34
2020/12/13 12:38:44;;;;;;;;;;;;;;;26.98;29.36;99901.91;5058535;28;791;-33
2020/12/13 12:41:16;;;;;;;;;;;;;;;26.78;29.65;99897.28;5057931;28;871;-34
2020/12/13 12:43:41;;;;;;;;;;;;;;;26.55;30.35;99905.69;5058360;28;752;-32
2020/12/13 12:46:06;;;;;;;;;;;;;;;26.17;30.82;99905.84;5058234;28;745;-33
2020/12/13 12:48:32;;;;;;;;;;;;;;;26.51;30.21;99910.63;5057725;28;1018;-28
2020/12/13 12:51:01;;;;;;;;;;;;;;;26.69;30.03;99911.97;5058308;28;1975;-32
2020/12/13 12:53:26;;;;;;;;;;;;;;;26.55;29.98;99913.75;5058102;28;931;-32
2020/12/13 12:55:52;;;;;;;;;;;;;;;26.20;30.96;99912.72;5057822;28;796;-34
2020/12/13 12:58:17;;;;;;;;;;;;;;;26.62;29.73;99917.34;5057970;28;771;-34
2020/12/13 13:00:45;;;;;;;;;;;;;;;26.55;29.96;99921.84;5057834;28;784;-34
2020/12/13 13:03:11;;;;;;;;;;;;;;;27.14;29.17;99923.16;5057569;28;953;-33
2020/12/13 13:08:19;;;;;;;;;;;;;;;26.67;29.85;99933.75;5057548;28;645;-32
2020/12/13 13:10:44;;;;;;;;;;;;;;;27.01;29.17;99934.75;5057281;28;1910;-32
2020/12/13 13:13:09;;;;;;;;;;;;;;;26.75;29.57;99935.44;5057727;28;816;-34